Time;durP1;ratioP1;P1;durP2;ratioP2;P2;SDS_P1;SDS_P2;PMS_P1;PMS_P2;Temp;Humidity;BMP_temperature;BMP_pressure;BME280_temperature;BME280_humidity;BME280_pressure;Samples;Min_cycle;Max_cycle;Signal;HPM_P1;HPM_P2
2023/07/25 00:00:06;;;;;;;;;;;22.20;99.00;22.20;98831.00;;;;334229;29;83401;-91
2023/07/25 00:00:18;;;;;;;;;;;22.20;99.20;22.20;98828.00;;;;333342;29;95627;-91
2023/07/25 00:00:30;;;;;;;;;;;22.20;98.90;22.20;98832.00;;;;333489;29;84089;-91
2023/07/25 00:00:42;;;;;;;;;;;22.20;99.10;22.20;98831.00;;;;335835;28;97692;-92
2023/07/25 00:00:53;;;;;;;;;;;22.20;98.90;22.20;98835.00;;;;334291;29;82582;-91
2023/07/25 00:01:05;;;;;;;;;;;22.20;99.00;22.20;98834.00;;;;337355;28;95215;-91
2023/07/25 00:01:17;;;;;;;;;;;22.10;99.00;22.20;98827.00;;;;335468;29;83474;-91
2023/07/25 00:01:29;;;;;;;;;;;22.20;99.10;22.30;98828.00;;;;334779;29;96763;-91
2023/07/25 00:01:41;;;;;;;;;;;22.10;99.20;22.30;98827.00;;;;336714;28;83518;-91
2023/07/25 00:01:53;;;;;;;;;;;22.20;99.40;22.20;98826.00;;;;334802;29;96523;-91
2023/07/25 00:02:06;;;;;;;;;;;22.10;99.20;22.20;98828.00;;;;338308;28;82327;-91
2023/07/25 00:02:18;;;;;;;;;;;22.10;99.10;22.20;98826.00;;;;333399;29;95706;-90
2023/07/25 00:02:30;;;;;;;;;;;22.10;98.50;22.20;98823.00;;;;334249;29;83403;-91
2023/07/25 00:02:41;;;;;;;;;;;22.10;98.30;22.20;98828.00;;;;337206;28;96502;-91
2023/07/25 00:02:53;;;;;;;;;;;22.10;98.50;22.20;98826.00;;;;337877;28;82595;-91
2023/07/25 00:03:05;;;;;;;;;;;22.10;98.60;22.20;98825.00;;;;334670;29;96577;-91
2023/07/25 00:03:17;;;;;;;;;;;22.10;98.30;22.20;98818.00;;;;335347;28;83528;-91
2023/07/25 00:03:29;;;;;;;;;;;22.10;98.50;22.20;98823.00;;;;333402;29;94605;-92
2023/07/25 00:03:41;;;;;;;;;;;22.10;98.70;22.30;98826.00;;;;336638;28;83519;-91
2023/07/25 00:03:53;;;;;;;;;;;22.10;98.80;22.30;98826.00;;;;337208;28;95559;-91
2023/07/25 00:04:05;;;;;;;;;;;22.10;98.90;22.20;98826.00;;;;334875;29;82787;-91
2023/07/25 00:04:17;;;;;;;;;;;22.10;98.90;22.20;98825.00;;;;334460;29;94636;-91
2023/07/25 00:04:28;;;;;;;;;;;22.10;99.00;22.20;98823.00;;;;336756;28;83431;-91
2023/07/25 00:04:40;;;;;;;;;;;22.10;99.00;22.20;98828.00;;;;337240;28;95512;-91
2023/07/25 00:04:52;;;;;;;;;;;22.10;98.60;22.10;98830.00;;;;336582;28;82653;-91
2023/07/25 00:05:04;;;;;;;;;;;22.10;98.40;22.10;98831.00;;;;336094;28;95483;-91
2023/07/25 00:05:16;;;;;;;;;;;22.10;98.40;22.10;98835.00;;;;338187;28;83436;-91
2023/07/25 00:05:28;;;;;;;;;;;22.10;98.50;22.10;98834.00;;;;336135;28;95232;-91
2023/07/25 00:05:39;;;;;;;;;;;22.10;98.50;22.10;98829.00;;;;335394;29;83464;-91
2023/07/25 00:05:51;;;;;;;;;;;22.10;98.40;22.10;98831.00;;;;337258;28;95469;-91
2023/07/25 00:06:03;;;;;;;;;;;22.10;98.40;22.10;98829.00;;;;335443;28;83507;-91
2023/07/25 00:06:15;;;;;;;;;;;22.10;98.40;22.00;98831.00;;;;333358;29;96767;-91
2023/07/25 00:06:27;;;;;;;;;;;22.00;98.40;22.00;98833.00;;;;336576;28;82688;-91
2023/07/25 00:06:38;;;;;;;;;;;22.00;98.40;22.10;98834.00;;;;335789;28;97489;-91
2023/07/25 00:06:50;;;;;;;;;;;22.00;98.60;22.10;98835.00;;;;336538;28;82571;-91
2023/07/25 00:07:02;;;;;;;;;;;22.00;98.80;22.20;98830.00;;;;335903;28;95656;-91
2023/07/25 00:07:14;;;;;;;;;;;22.00;98.80;22.10;98825.00;;;;335297;29;83520;-92
2023/07/25 00:07:25;;;;;;;;;;;22.00;98.90;22.10;98832.00;;;;334613;29;95856;-91
2023/07/25 00:07:37;;;;;;;;;;;22.00;98.80;22.10;98825.00;;;;335430;29;82571;-91
2023/07/25 00:07:49;;;;;;;;;;;22.00;98.90;22.10;98826.00;;;;335806;28;95615;-91
2023/07/25 00:08:01;;;;;;;;;;;22.00;98.90;22.10;98828.00;;;;335280;29;82617;-91
2023/07/25 00:08:13;;;;;;;;;;;22.00;99.00;22.10;98832.00;;;;333236;29;95623;-91
2023/07/25 00:08:25;;;;;;;;;;;22.00;99.10;22.00;98831.00;;;;335533;29;82620;-91
2023/07/25 00:08:36;;;;;;;;;;;22.00;99.00;22.10;98831.00;;;;334500;29;97611;-91
2023/07/25 00:08:48;;;;;;;;;;;22.00;99.00;22.20;98838.00;;;;335595;29;82389;-91
2023/07/25 00:09:00;;;;;;;;;;;22.00;99.20;22.20;98828.00;;;;334525;28;94621;-92
2023/07/25 00:09:12;;;;;;;;;;;22.00;99.30;22.20;98835.00;;;;336625;28;82644;-91
2023/07/25 00:09:24;;;;;;;;;;;22.00;99.30;22.20;98834.00;;;;333333;29;96706;-91
2023/07/25 00:09:36;;;;;;;;;;;22.00;99.30;22.20;98836.00;;;;335451;29;82645;-90
2023/07/25 00:09:47;;;;;;;;;;;22.00;99.40;22.20;98825.00;;;;334590;29;96693;-91
2023/07/25 00:09:59;;;;;;;;;;;22.00;99.50;22.20;98825.00;;;;337892;28;82601;-92
2023/07/25 00:10:12;;;;;;;;;;;22.00;99.40;22.10;98829.00;;;;335964;28;95296;-91
2023/07/25 00:10:23;;;;;;;;;;;22.00;99.40;22.10;98829.00;;;;337864;28;83504;-91
2023/07/25 00:10:35;;;;;;;;;;;22.00;99.30;22.10;98829.00;;;;335791;28;95601;-90
2023/07/25 00:10:47;;;;;;;;;;;22.00;99.20;22.10;98827.00;;;;336655;28;82602;-91
2023/07/25 00:10:59;;;;;;;;;;;22.00;99.30;22.10;98826.00;;;;337022;28;95730;-91
2023/07/25 00:11:12;;;;;;;;;;;22.00;99.40;22.10;98833.00;;;;335404;29;83497;-91
2023/07/25 00:11:24;;;;;;;;;;;22.00;99.30;22.20;98829.00;;;;334666;28;94830;-91
2023/07/25 00:11:36;;;;;;;;;;;22.00;99.40;22.10;98832.00;;;;339124;28;83669;-91
2023/07/25 00:11:48;;;;;;;;;;;22.00;99.40;22.10;98826.00;;;;334447;29;94981;-91
2023/07/25 00:12:00;;;;;;;;;;;22.00;99.50;22.10;98837.00;;;;335569;29;83555;-91
2023/07/25 00:12:11;;;;;;;;;;;22.00;99.50;22.10;98830.00;;;;335922;28;95512;-91
2023/07/25 00:12:23;;;;;;;;;;;22.00;99.60;22.20;98830.00;;;;335388;29;82512;-90
2023/07/25 00:12:35;;;;;;;;;;;22.00;99.60;22.10;98830.00;;;;333271;29;96249;-91
2023/07/25 00:12:52;;;;;;;;;;;22.00;99.60;22.10;98827.00;;;;336791;28;83367;-91
2023/07/25 00:13:04;;;;;;;;;;;22.10;99.60;22.10;98828.00;;;;335849;28;95705;-91
2023/07/25 00:13:16;;;;;;;;;;;22.10;99.60;22.10;98829.00;;;;335518;29;83382;-91
2023/07/25 00:13:28;;;;;;;;;;;22.10;99.50;22.10;98826.00;;;;335814;28;95660;-91
2023/07/25 00:13:40;;;;;;;;;;;22.10;99.40;22.10;98827.00;;;;335331;29;83497;-91
2023/07/25 00:13:52;;;;;;;;;;;22.00;99.30;22.10;98827.00;;;;334707;29;96568;-92
2023/07/25 00:14:04;;;;;;;;;;;22.00;99.40;22.10;98833.00;;;;332791;29;83555;-91
2023/07/25 00:14:15;;;;;;;;;;;22.00;99.20;22.10;98825.00;;;;333524;29;94363;-91
2023/07/25 00:14:27;;;;;;;;;;;22.00;99.00;22.00;98828.00;;;;335507;29;82485;-91
2023/07/25 00:14:39;;;;;;;;;;;22.00;99.00;22.10;98821.00;;;;335783;28;96824;-91
2023/07/25 00:14:51;;;;;;;;;;;22.00;99.20;22.10;98829.00;;;;336830;28;83443;-92
2023/07/25 00:15:03;;;;;;;;;;;22.00;99.30;22.10;98825.00;;;;334493;29;95587;-91
2023/07/25 00:15:15;;;;;;;;;;;22.00;99.50;22.10;98828.00;;;;335597;29;83466;-91
2023/07/25 00:15:27;;;;;;;;;;;22.00;99.30;22.10;98823.00;;;;333342;29;95748;-91
2023/07/25 00:15:39;;;;;;;;;;;22.00;99.40;22.00;98832.00;;;;335495;29;83526;-91
2023/07/25 00:15:51;;;;;;;;;;;22.00;99.40;22.10;98830.00;;;;333222;29;95448;-91
2023/07/25 00:16:03;;;;;;;;;;;22.00;99.50;22.20;98826.00;;;;335348;29;83417;-90
2023/07/25 00:16:14;;;;;;;;;;;22.00;99.60;22.20;98822.00;;;;335969;28;96933;-91
2023/07/25 00:16:26;;;;;;;;;;;22.00;99.50;22.20;98823.00;;;;336763;28;82493;-91
2023/07/25 00:16:38;;;;;;;;;;;22.10;99.60;22.20;98829.00;;;;335838;28;97548;-91
2023/07/25 00:16:50;;;;;;;;;;;22.00;99.50;22.10;98825.00;;;;336769;28;83441;-91
2023/07/25 00:17:03;;;;;;;;;;;22.00;99.30;22.10;98826.00;;;;334568;29;95189;-91
2023/07/25 00:17:14;;;;;;;;;;;22.10;99.20;22.10;98832.00;;;;335389;29;83473;-91
2023/07/25 00:17:26;;;;;;;;;;;22.10;99.00;22.00;98823.00;;;;334947;29;92677;-90
2023/07/25 00:17:38;;;;;;;;;;;22.00;98.70;22.00;98825.00;;;;333953;29;83446;-91
2023/07/25 00:17:50;;;;;;;;;;;22.00;98.70;22.00;98822.00;;;;337510;28;95763;-91
2023/07/25 00:18:02;;;;;;;;;;;22.00;98.80;22.00;98825.00;;;;335868;29;83478;-90
2023/07/25 00:18:14;;;;;;;;;;;22.00;98.80;22.00;98821.00;;;;336232;28;94979;-91
2023/07/25 00:18:26;;;;;;;;;;;22.00;98.90;22.00;98830.00;;;;335851;29;83550;-90
2023/07/25 00:18:37;;;;;;;;;;;22.00;98.60;22.00;98823.00;;;;335256;29;96576;-91
2023/07/25 00:18:50;;;;;;;;;;;22.00;98.50;22.00;98826.00;;;;337073;28;83531;-91
2023/07/25 00:19:02;;;;;;;;;;;21.90;98.60;22.00;98829.00;;;;335121;29;96638;-90
2023/07/25 00:19:14;;;;;;;;;;;22.00;98.60;22.00;98817.00;;;;334713;29;82424;-90
2023/07/25 00:19:25;;;;;;;;;;;22.00;98.70;21.90;98823.00;;;;335229;29;95230;-91
2023/07/25 00:19:37;;;;;;;;;;;21.90;98.50;22.00;98823.00;;;;337113;28;82481;-91
2023/07/25 00:19:49;;;;;;;;;;;21.90;98.70;22.00;98824.00;;;;333896;29;96470;-92
2023/07/25 00:20:01;;;;;;;;;;;21.90;98.70;22.00;98820.00;;;;333329;29;83202;-91
2023/07/25 00:20:13;;;;;;;;;;;21.90;98.70;22.00;98816.00;;;;333768;29;94585;-91
2023/07/25 00:20:25;;;;;;;;;;;21.90;98.70;22.10;98821.00;;;;336037;29;82615;-92
2023/07/25 00:20:37;;;;;;;;;;;21.90;98.90;22.10;98827.00;;;;332729;29;96405;-91
2023/07/25 00:20:48;;;;;;;;;;;21.90;98.90;22.10;98817.00;;;;335954;29;83407;-91
2023/07/25 00:21:00;;;;;;;;;;;21.90;99.00;22.10;98814.00;;;;335262;29;95691;-91
2023/07/25 00:21:12;;;;;;;;;;;21.90;99.00;22.10;98826.00;;;;334746;29;82537;-91
2023/07/25 00:21:24;;;;;;;;;;;21.90;99.00;22.00;98820.00;;;;336685;28;95661;-90
2023/07/25 00:21:36;;;;;;;;;;;21.90;98.70;22.00;98819.00;;;;337281;28;83381;-91
2023/07/25 00:21:48;;;;;;;;;;;21.90;98.70;22.00;98823.00;;;;336559;28;95008;-91
2023/07/25 00:21:59;;;;;;;;;;;21.90;98.70;22.00;98822.00;;;;337324;28;83441;-91
2023/07/25 00:22:11;;;;;;;;;;;21.90;98.90;22.00;98820.00;;;;336384;28;95941;-91
2023/07/25 00:22:23;;;;;;;;;;;21.90;98.90;22.00;98826.00;;;;334207;29;82503;-91
2023/07/25 00:22:35;;;;;;;;;;;21.90;98.80;21.90;98819.00;;;;336912;28;93191;-91
2023/07/25 00:22:47;;;;;;;;;;;21.90;98.80;22.00;98826.00;;;;336743;28;83298;-91
2023/07/25 00:22:59;;;;;;;;;;;21.90;98.90;22.10;98821.00;;;;335976;28;94202;-91
2023/07/25 00:23:11;;;;;;;;;;;21.90;99.00;22.00;98819.00;;;;336845;28;82472;-91
2023/07/25 00:23:23;;;;;;;;;;;21.90;99.00;22.00;98823.00;;;;334719;29;96751;-91
2023/07/25 00:23:34;;;;;;;;;;;21.90;98.90;22.00;98816.00;;;;338095;28;82467;-90
2023/07/25 00:23:46;;;;;;;;;;;21.90;98.80;21.90;98822.00;;;;334685;29;95478;-91
2023/07/25 00:23:58;;;;;;;;;;;21.90;98.70;21.90;98822.00;;;;335303;29;82649;-91
2023/07/25 00:24:10;;;;;;;;;;;21.90;98.80;21.90;98817.00;;;;334653;29;96648;-91
2023/07/25 00:24:21;;;;;;;;;;;21.90;98.80;21.90;98819.00;;;;335385;29;83226;-91
2023/07/25 00:24:33;;;;;;;;;;;21.90;98.90;21.90;98820.00;;;;333377;29;97750;-91
2023/07/25 00:24:45;;;;;;;;;;;21.90;98.90;21.90;98823.00;;;;336887;28;82322;-91
2023/07/25 00:24:58;;;;;;;;;;;21.90;99.00;22.00;98819.00;;;;334636;29;96634;-91
2023/07/25 00:25:10;;;;;;;;;;;21.90;99.10;21.90;98824.00;;;;335429;29;84313;-91
2023/07/25 00:25:22;;;;;;;;;;;21.90;99.10;22.00;98827.00;;;;334784;29;96583;-91
2023/07/25 00:25:34;;;;;;;;;;;21.90;99.20;21.90;98822.00;;;;335534;29;82515;-91
2023/07/25 00:25:45;;;;;;;;;;;21.90;99.20;22.00;98818.00;;;;334783;29;95448;-91
2023/07/25 00:25:57;;;;;;;;;;;21.90;99.30;22.00;98822.00;;;;336883;28;83256;-91
2023/07/25 00:26:09;;;;;;;;;;;21.90;99.40;22.00;98826.00;;;;332180;29;96808;-91
2023/07/25 00:26:21;;;;;;;;;;;21.90;99.50;22.10;98822.00;;;;335488;29;82562;-91
2023/07/25 00:26:33;;;;;;;;;;;21.90;99.50;22.10;98824.00;;;;336088;28;96133;-91
2023/07/25 00:26:45;;;;;;;;;;;21.90;99.50;22.00;98821.00;;;;335543;29;83499;-91
2023/07/25 00:26:57;;;;;;;;;;;21.90;99.80;22.00;98825.00;;;;333376;29;96161;-91
2023/07/25 00:27:09;;;;;;;;;;;21.90;99.50;22.00;98824.00;;;;332778;29;83597;-91
2023/07/25 00:27:20;;;;;;;;;;;21.90;99.50;22.00;98820.00;;;;334806;29;96951;-90
2023/07/25 00:27:32;;;;;;;;;;;21.90;99.50;22.00;98828.00;;;;335637;29;83357;-91
2023/07/25 00:27:44;;;;;;;;;;;21.90;99.40;21.90;98814.00;;;;333454;29;95990;-91
2023/07/25 00:27:56;;;;;;;;;;;21.90;99.40;21.90;98819.00;;;;335529;29;82473;-90
2023/07/25 00:28:08;;;;;;;;;;;21.90;99.50;21.90;98816.00;;;;333585;29;96319;-91
2023/07/25 00:28:22;;;;;;;;;;;21.90;99.40;21.90;98817.00;;;;334360;29;82423;-90
2023/07/25 00:28:34;;;;;;;;;;;21.90;99.40;22.00;98824.00;;;;334803;29;97611;-91
2023/07/25 00:28:45;;;;;;;;;;;21.90;99.60;22.10;98821.00;;;;335527;29;83488;-91
2023/07/25 00:28:57;;;;;;;;;;;21.90;99.70;22.10;98823.00;;;;333512;29;96509;-90
2023/07/25 00:29:09;;;;;;;;;;;21.90;99.80;22.10;98816.00;;;;335570;29;83410;-91
2023/07/25 00:29:21;;;;;;;;;;;21.90;99.70;22.20;98822.00;;;;333439;29;95538;-90
2023/07/25 00:29:33;;;;;;;;;;;21.90;99.50;22.20;98824.00;;;;335554;29;83478;-91
2023/07/25 00:29:46;;;;;;;;;;;21.90;99.40;22.10;98825.00;;;;334967;29;96920;-91
2023/07/25 00:29:58;;;;;;;;;;;21.90;99.40;22.00;98822.00;;;;336879;28;83486;-91
2023/07/25 00:30:10;;;;;;;;;;;21.90;99.40;22.00;98822.00;;;;333688;29;95643;-90
2023/07/25 00:30:22;;;;;;;;;;;21.90;99.50;22.00;98823.00;;;;334555;29;82502;-91
2023/07/25 00:30:33;;;;;;;;;;;21.90;99.50;22.00;98819.00;;;;334745;29;97654;-90
2023/07/25 00:30:45;;;;;;;;;;;22.00;99.60;22.00;98820.00;;;;337015;28;83413;-90
2023/07/25 00:31:04;;;;;;;;;;;21.90;99.50;22.00;98827.00;;;;334644;29;95437;-91
2023/07/25 00:31:16;;;;;;;;;;;21.90;99.50;22.00;98827.00;;;;336861;28;83483;-91
2023/07/25 00:31:27;;;;;;;;;;;21.90;99.50;22.00;98822.00;;;;333730;29;95552;-91
2023/07/25 00:31:39;;;;;;;;;;;21.90;99.50;22.00;98824.00;;;;335654;29;82545;-91
2023/07/25 00:31:51;;;;;;;;;;;21.90;99.60;22.00;98827.00;;;;334930;29;95263;-90
2023/07/25 00:32:04;;;;;;;;;;;21.90;99.60;22.00;98827.00;;;;335681;29;83498;-91
2023/07/25 00:32:16;;;;;;;;;;;22.00;99.60;22.00;98825.00;;;;334579;29;95496;-91
2023/07/25 00:32:27;;;;;;;;;;;21.90;99.60;22.00;98828.00;;;;335627;29;83421;-90
2023/07/25 00:32:39;;;;;;;;;;;22.00;99.60;22.10;98827.00;;;;335988;28;95315;-91
2023/07/25 00:32:51;;;;;;;;;;;21.90;99.70;22.10;98831.00;;;;336903;28;83433;-90
2023/07/25 00:33:03;;;;;;;;;;;21.90;99.60;22.10;98828.00;;;;337452;28;95663;-91
2023/07/25 00:33:15;;;;;;;;;;;21.90;99.40;22.10;98822.00;;;;335584;29;82522;-90
2023/07/25 00:33:27;;;;;;;;;;;21.90;99.40;22.10;98822.00;;;;331979;29;95652;-91
2023/07/25 00:33:39;;;;;;;;;;;21.90;99.50;22.00;98824.00;;;;337950;28;82696;-91
2023/07/25 00:33:51;;;;;;;;;;;22.00;99.50;22.00;98828.00;;;;334807;29;96669;-91
2023/07/25 00:34:03;;;;;;;;;;;21.90;99.40;21.90;98829.00;;;;335570;29;83466;-90
2023/07/25 00:34:15;;;;;;;;;;;22.00;99.30;21.90;98824.00;;;;337313;28;95797;-91
2023/07/25 00:34:27;;;;;;;;;;;21.90;99.00;21.90;98819.00;;;;332874;29;83459;-91
2023/07/25 00:34:39;;;;;;;;;;;21.90;98.80;21.90;98821.00;;;;334689;29;96039;-90
2023/07/25 00:34:51;;;;;;;;;;;21.90;98.80;21.90;98824.00;;;;335516;29;83368;-90
2023/07/25 00:35:03;;;;;;;;;;;21.90;98.70;21.90;98829.00;;;;335967;28;95673;-90
2023/07/25 00:35:15;;;;;;;;;;;21.90;98.70;21.90;98821.00;;;;335439;29;83695;-91
2023/07/25 00:35:27;;;;;;;;;;;21.90;98.80;21.90;98826.00;;;;333403;29;96060;-90
2023/07/25 00:35:38;;;;;;;;;;;21.90;98.90;21.90;98822.00;;;;334078;29;83467;-90
2023/07/25 00:35:52;;;;;;;;;;;21.90;98.50;22.00;98826.00;;;;332124;29;95243;-91
2023/07/25 00:36:04;;;;;;;;;;;21.90;98.60;21.90;98822.00;;;;334128;29;83426;-91
2023/07/25 00:36:15;;;;;;;;;;;21.90;98.50;21.90;98823.00;;;;334692;29;95294;-90
2023/07/25 00:36:27;;;;;;;;;;;21.90;98.30;21.80;98820.00;;;;336844;28;83354;-90
2023/07/25 00:36:39;;;;;;;;;;;21.80;98.30;21.90;98825.00;;;;333386;29;97432;-91
2023/07/25 00:36:51;;;;;;;;;;;21.80;98.40;21.90;98827.00;;;;334177;29;83743;-90
2023/07/25 00:37:03;;;;;;;;;;;21.80;98.60;21.90;98823.00;;;;334503;29;95558;-90
2023/07/25 00:37:15;;;;;;;;;;;21.80;98.70;21.80;98823.00;;;;335527;29;83416;-91
2023/07/25 00:37:29;;;;;;;;;;;21.80;98.30;21.80;98816.00;;;;331991;29;96875;-91
2023/07/25 00:37:41;;;;;;;;;;;21.80;98.30;21.80;98824.00;;;;335431;29;83444;-91
2023/07/25 00:37:53;;;;;;;;;;;21.80;98.70;21.80;98822.00;;;;334712;29;96684;-91
2023/07/25 00:38:04;;;;;;;;;;;21.80;98.80;21.80;98823.00;;;;335507;29;82371;-91
2023/07/25 00:38:16;;;;;;;;;;;21.80;98.80;21.90;98823.00;;;;334472;29;94232;-91
2023/07/25 00:38:28;;;;;;;;;;;21.80;98.60;22.00;98827.00;;;;334205;29;82579;-91
2023/07/25 00:38:40;;;;;;;;;;;21.80;98.70;22.00;98820.00;;;;333485;29;96376;-91
2023/07/25 00:38:52;;;;;;;;;;;21.80;98.80;22.00;98819.00;;;;336645;28;83424;-91
2023/07/25 00:39:05;;;;;;;;;;;21.80;98.80;22.00;98815.00;;;;334781;29;96421;-91
2023/07/25 00:39:16;;;;;;;;;;;21.80;98.80;22.00;98826.00;;;;335509;29;83435;-92
2023/07/25 00:39:28;;;;;;;;;;;21.80;98.80;21.90;98815.00;;;;334644;29;97275;-91
2023/07/25 00:39:40;;;;;;;;;;;21.80;98.90;21.90;98814.00;;;;335483;29;82534;-91
2023/07/25 00:39:53;;;;;;;;;;;21.80;98.90;21.90;98812.00;;;;334708;29;96763;-91
2023/07/25 00:40:05;;;;;;;;;;;21.80;98.90;21.90;98820.00;;;;335436;29;83285;-90
2023/07/25 00:40:17;;;;;;;;;;;21.80;98.80;21.90;98812.00;;;;335912;28;96687;-91
2023/07/25 00:40:30;;;;;;;;;;;21.80;98.90;22.00;98813.00;;;;336766;28;83373;-91
2023/07/25 00:40:42;;;;;;;;;;;21.80;99.00;21.90;98814.00;;;;334657;29;97572;-91
2023/07/25 00:40:54;;;;;;;;;;;21.80;99.00;21.90;98812.00;;;;334653;29;83352;-91
2023/07/25 00:41:05;;;;;;;;;;;21.80;98.70;21.90;98819.00;;;;339989;28;97117;-91
2023/07/25 00:41:17;;;;;;;;;;;21.80;98.60;21.90;98813.00;;;;340193;28;83596;-91
2023/07/25 00:41:29;;;;;;;;;;;21.80;98.60;21.90;98813.00;;;;334666;29;96532;-90
2023/07/25 00:41:42;;;;;;;;;;;21.80;98.60;22.00;98816.00;;;;338075;28;82414;-91
2023/07/25 00:41:53;;;;;;;;;;;21.80;98.90;22.10;98818.00;;;;338668;28;96151;-91
2023/07/25 00:42:05;;;;;;;;;;;21.80;98.90;22.00;98819.00;;;;339490;28;82380;-91
2023/07/25 00:42:17;;;;;;;;;;;21.80;98.90;22.00;98812.00;;;;337306;28;95300;-91
2023/07/25 00:42:29;;;;;;;;;;;21.80;98.90;22.00;98818.00;;;;335451;29;82555;-91
2023/07/25 00:42:41;;;;;;;;;;;21.80;99.00;22.00;98821.00;;;;337217;28;97168;-91
2023/07/25 00:42:56;;;;;;;;;;;21.80;99.00;22.00;98824.00;;;;339272;28;82490;-91
2023/07/25 00:43:08;;;;;;;;;;;21.80;99.00;22.00;98816.00;;;;335930;28;96659;-91
2023/07/25 00:43:20;;;;;;;;;;;21.80;99.10;21.90;98815.00;;;;338005;28;82609;-91
2023/07/25 00:43:31;;;;;;;;;;;21.80;99.10;21.90;98821.00;;;;335759;28;96436;-91
2023/07/25 00:43:43;;;;;;;;;;;21.80;98.90;21.90;98814.00;;;;339324;28;83462;-91
2023/07/25 00:43:55;;;;;;;;;;;21.80;98.80;21.90;98815.00;;;;335973;28;96034;-91
2023/07/25 00:44:08;;;;;;;;;;;21.80;98.50;21.90;98823.00;;;;338169;28;82498;-91
2023/07/25 00:44:19;;;;;;;;;;;21.80;98.50;21.80;98824.00;;;;337263;28;94350;-91
2023/07/25 00:44:31;;;;;;;;;;;21.80;98.50;21.80;98820.00;;;;338082;28;82551;-91
2023/07/25 00:44:43;;;;;;;;;;;21.80;98.50;21.90;98821.00;;;;337204;28;97866;-90
2023/07/25 00:44:55;;;;;;;;;;;21.80;98.60;21.80;98820.00;;;;338025;28;84180;-91
2023/07/25 00:45:07;;;;;;;;;;;21.80;98.60;21.80;98822.00;;;;338617;28;96493;-91
2023/07/25 00:45:19;;;;;;;;;;;21.80;98.60;21.80;98821.00;;;;338058;28;83473;-91
2023/07/25 00:45:31;;;;;;;;;;;21.80;98.60;21.80;98825.00;;;;335901;28;96418;-91
2023/07/25 00:45:43;;;;;;;;;;;21.70;98.70;21.80;98826.00;;;;336562;28;83641;-92
2023/07/25 00:45:55;;;;;;;;;;;21.70;98.60;21.80;98810.00;;;;334625;29;97211;-92
2023/07/25 00:46:06;;;;;;;;;;;21.80;98.60;21.90;98821.00;;;;339306;28;83564;-91
2023/07/25 00:46:18;;;;;;;;;;;21.80;98.70;21.90;98823.00;;;;337122;28;96444;-91
2023/07/25 00:46:30;;;;;;;;;;;21.80;98.80;21.90;98821.00;;;;336737;28;83473;-92
2023/07/25 00:46:42;;;;;;;;;;;21.80;98.90;22.00;98824.00;;;;337322;28;96268;-91
2023/07/25 00:46:54;;;;;;;;;;;21.80;99.00;21.90;98818.00;;;;336759;28;82460;-91
2023/07/25 00:47:06;;;;;;;;;;;21.80;99.00;21.90;98818.00;;;;335972;28;95539;-91
2023/07/25 00:47:18;;;;;;;;;;;21.70;99.00;22.00;98824.00;;;;338022;28;83492;-91
2023/07/25 00:47:29;;;;;;;;;;;21.80;99.00;21.90;98822.00;;;;337392;28;95562;-91
2023/07/25 00:47:41;;;;;;;;;;;21.70;99.00;21.90;98817.00;;;;340675;28;82551;-91
2023/07/25 00:47:53;;;;;;;;;;;21.80;99.10;21.80;98820.00;;;;335967;28;95484;-91
2023/07/25 00:48:05;;;;;;;;;;;21.70;98.90;21.80;98820.00;;;;336808;28;83486;-91
2023/07/25 00:48:18;;;;;;;;;;;21.80;98.80;21.80;98825.00;;;;339943;28;95890;-91
2023/07/25 00:48:30;;;;;;;;;;;21.80;98.70;21.80;98819.00;;;;336529;28;83499;-91
2023/07/25 00:48:43;;;;;;;;;;;21.80;98.60;21.80;98819.00;;;;337075;28;96659;-91
2023/07/25 00:48:55;;;;;;;;;;;21.70;98.60;21.70;98817.00;;;;337920;28;82581;-92
2023/07/25 00:49:07;;;;;;;;;;;21.70;98.60;21.70;98825.00;;;;337164;28;94917;-91
2023/07/25 00:49:19;;;;;;;;;;;21.70;98.70;21.80;98818.00;;;;342027;28;83496;-91
2023/07/25 00:49:31;;;;;;;;;;;21.70;98.70;21.70;98819.00;;;;336994;28;95403;-90
2023/07/25 00:49:42;;;;;;;;;;;21.70;98.70;21.70;98821.00;;;;339455;28;83406;-90
2023/07/25 00:49:54;;;;;;;;;;;21.70;98.80;21.70;98824.00;;;;337078;28;96864;-91
2023/07/25 00:50:07;;;;;;;;;;;21.70;98.70;21.70;98820.00;;;;338052;28;83489;-91
2023/07/25 00:50:18;;;;;;;;;;;21.70;98.70;21.70;98818.00;;;;337130;28;97011;-91
2023/07/25 00:50:31;;;;;;;;;;;21.70;98.80;21.70;98819.00;;;;336646;28;82574;-91
2023/07/25 00:50:44;;;;;;;;;;;21.70;98.80;21.70;98823.00;;;;337245;28;96595;-90
2023/07/25 00:50:56;;;;;;;;;;;21.70;98.80;21.70;98823.00;;;;337966;28;83475;-90
2023/07/25 00:51:08;;;;;;;;;;;21.70;98.80;21.70;98812.00;;;;335829;28;95716;-91
2023/07/25 00:51:20;;;;;;;;;;;21.70;98.80;21.60;98820.00;;;;338120;28;83314;-91
2023/07/25 00:51:31;;;;;;;;;;;21.70;98.80;21.70;98816.00;;;;335889;28;96875;-91
2023/07/25 00:51:44;;;;;;;;;;;21.60;98.90;21.70;98814.00;;;;334066;29;82512;-91
2023/07/25 00:51:56;;;;;;;;;;;21.60;98.90;21.60;98810.00;;;;334702;29;94887;-91
2023/07/25 00:52:09;;;;;;;;;;;21.60;99.00;21.70;98818.00;;;;335411;29;83325;-91
2023/07/25 00:52:21;;;;;;;;;;;21.70;99.00;21.60;98816.00;;;;333297;29;96415;-92
2023/07/25 00:52:32;;;;;;;;;;;21.60;99.00;21.60;98817.00;;;;339371;28;83479;-91
2023/07/25 00:52:44;;;;;;;;;;;21.60;99.00;21.60;98821.00;;;;336050;28;95790;-91
2023/07/25 00:52:58;;;;;;;;;;;21.60;98.90;21.60;98820.00;;;;337712;28;83605;-91
2023/07/25 00:53:09;;;;;;;;;;;21.60;98.90;21.60;98826.00;;;;337225;28;94516;-91
2023/07/25 00:53:21;;;;;;;;;;;21.60;98.90;21.60;98826.00;;;;336800;28;83407;-91
2023/07/25 00:53:33;;;;;;;;;;;21.60;98.90;21.60;98817.00;;;;337175;28;96835;-90
2023/07/25 00:53:45;;;;;;;;;;;21.60;98.90;21.60;98822.00;;;;339433;28;83402;-91
2023/07/25 00:53:57;;;;;;;;;;;21.60;98.90;21.60;98821.00;;;;338563;28;97178;-91
2023/07/25 00:54:09;;;;;;;;;;;21.60;98.90;21.60;98819.00;;;;338070;28;83363;-90
2023/07/25 00:54:20;;;;;;;;;;;21.60;99.00;21.60;98817.00;;;;337341;28;94966;-91
2023/07/25 00:54:32;;;;;;;;;;;21.60;99.00;21.60;98826.00;;;;337875;28;82505;-90
2023/07/25 00:54:48;;;;;;;;;;;21.60;99.00;21.60;98821.00;;;;337281;28;97236;-91
2023/07/25 00:55:00;;;;;;;;;;;21.60;99.00;21.60;98817.00;;;;336723;28;83600;-92
2023/07/25 00:55:12;;;;;;;;;;;21.60;99.30;21.60;98815.00;;;;337284;28;96918;-91
2023/07/25 00:55:24;;;;;;;;;;;21.60;99.20;21.60;98821.00;;;;338058;28;82605;-91
2023/07/25 00:55:36;;;;;;;;;;;21.50;99.10;21.60;98820.00;;;;335875;28;96792;-91
2023/07/25 00:55:48;;;;;;;;;;;21.60;99.10;21.60;98812.00;;;;337996;28;82579;-91
2023/07/25 00:56:01;;;;;;;;;;;21.50;99.10;21.60;98815.00;;;;337096;28;95560;-91
2023/07/25 00:56:13;;;;;;;;;;;21.50;99.10;21.60;98826.00;;;;336769;28;83439;-91
2023/07/25 00:56:25;;;;;;;;;;;21.60;99.10;21.60;98818.00;;;;335930;28;97096;-91
2023/07/25 00:56:37;;;;;;;;;;;21.50;99.00;21.60;98817.00;;;;335674;29;83386;-91
2023/07/25 00:56:49;;;;;;;;;;;21.50;99.10;21.60;98826.00;;;;335670;28;96609;-90
2023/07/25 00:57:00;;;;;;;;;;;21.50;99.10;21.60;98811.00;;;;337944;28;83526;-90
2023/07/25 00:57:13;;;;;;;;;;;21.50;99.10;21.60;98815.00;;;;334559;28;95731;-90
2023/07/25 00:57:24;;;;;;;;;;;21.60;99.20;21.60;98825.00;;;;339178;28;83465;-91
2023/07/25 00:57:36;;;;;;;;;;;21.50;99.20;21.60;98808.00;;;;339871;28;96715;-90
2023/07/25 00:57:48;;;;;;;;;;;21.50;99.20;21.60;98806.00;;;;338131;28;83345;-90
2023/07/25 00:58:00;;;;;;;;;;;21.50;99.20;21.60;98814.00;;;;337444;28;95471;-91
2023/07/25 00:58:12;;;;;;;;;;;21.50;99.20;21.60;98811.00;;;;335288;29;83573;-91
2023/07/25 00:58:24;;;;;;;;;;;21.50;99.20;21.60;98812.00;;;;337106;28;94404;-90
2023/07/25 00:58:36;;;;;;;;;;;21.50;99.20;21.60;98813.00;;;;338065;28;83442;-91
2023/07/25 00:58:48;;;;;;;;;;;21.50;99.20;21.60;98816.00;;;;336001;28;94805;-91
2023/07/25 00:58:59;;;;;;;;;;;21.50;99.20;21.60;98812.00;;;;338094;28;83445;-90
2023/07/25 00:59:11;;;;;;;;;;;21.50;99.30;21.60;98811.00;;;;338519;28;96861;-90
2023/07/25 00:59:23;;;;;;;;;;;21.50;99.30;21.60;98815.00;;;;338093;28;83367;-91